sensor_id;sensor_type;location;lat;lon;timestamp;temperature;humidity
5286;DHT22;2665;53.112;7.358;2022-10-04T00:01:46;12.20;99.90
5286;DHT22;2665;53.112;7.358;2022-10-04T00:04:17;12.10;99.90
5286;DHT22;2665;53.112;7.358;2022-10-04T00:10:01;12.10;99.90
5286;DHT22;2665;53.112;7.358;2022-10-04T00:12:38;12.20;99.90
5286;DHT22;2665;53.112;7.358;2022-10-04T00:15:17;12.10;99.90
5286;DHT22;2665;53.112;7.358;2022-10-04T00:17:44;12.10;99.90
5286;DHT22;2665;53.112;7.358;2022-10-04T00:33:38;12.10;99.90
5286;DHT22;2665;53.112;7.358;2022-10-04T00:44:32;12.00;1.00
5286;DHT22;2665;53.112;7.358;2022-10-04T00:47:00;12.00;1.00
5286;DHT22;2665;53.112;7.358;2022-10-04T00:49:39;12.00;1.00
5286;DHT22;2665;53.112;7.358;2022-10-04T00:52:12;12.00;1.00
5286;DHT22;2665;53.112;7.358;2022-10-04T00:54:55;12.00;1.00
5286;DHT22;2665;53.112;7.358;2022-10-04T00:57:23;12.00;1.00
5286;DHT22;2665;53.112;7.358;2022-10-04T00:59:56;12.00;1.00
5286;DHT22;2665;53.112;7.358;2022-10-04T01:05:09;12.00;1.00
5286;DHT22;2665;53.112;7.358;2022-10-04T01:07:45;12.00;80.10
5286;DHT22;2665;53.112;7.358;2022-10-04T01:13:06;11.90;99.90
5286;DHT22;2665;53.112;7.358;2022-10-04T01:20:57;12.00;99.90
5286;DHT22;2665;53.112;7.358;2022-10-04T01:26:33;11.90;99.90
5286;DHT22;2665;53.112;7.358;2022-10-04T01:29:08;12.00;99.90
5286;DHT22;2665;53.112;7.358;2022-10-04T01:31:36;12.00;99.90
5286;DHT22;2665;53.112;7.358;2022-10-04T01:34:03;12.00;99.90
5286;DHT22;2665;53.112;7.358;2022-10-04T01:36:30;12.00;99.90
5286;DHT22;2665;53.112;7.358;2022-10-04T01:38:56;12.00;99.90
5286;DHT22;2665;53.112;7.358;2022-10-04T01:44:38;12.00;99.90
5286;DHT22;2665;53.112;7.358;2022-10-04T01:47:55;12.00;1.00
5286;DHT22;2665;53.112;7.358;2022-10-04T01:50:07;12.00;1.00
5286;DHT22;2665;53.112;7.358;2022-10-04T01:52:41;12.00;1.00
5286;DHT22;2665;53.112;7.358;2022-10-04T01:55:18;12.00;1.00
5286;DHT22;2665;53.112;7.358;2022-10-04T01:58:24;12.00;1.00
5286;DHT22;2665;53.112;7.358;2022-10-04T02:01:01;12.10;99.90
5286;DHT22;2665;53.112;7.358;2022-10-04T02:03:35;12.00;99.90
5286;DHT22;2665;53.112;7.358;2022-10-04T02:06:04;12.00;99.90
5286;DHT22;2665;53.112;7.358;2022-10-04T02:08:36;12.00;99.90
5286;DHT22;2665;53.112;7.358;2022-10-04T02:11:03;12.00;99.90
5286;DHT22;2665;53.112;7.358;2022-10-04T02:13:34;11.90;99.90
5286;DHT22;2665;53.112;7.358;2022-10-04T02:16:02;11.90;1.00
5286;DHT22;2665;53.112;7.358;2022-10-04T02:18:29;11.90;1.00
5286;DHT22;2665;53.112;7.358;2022-10-04T02:20:56;11.90;1.00
5286;DHT22;2665;53.112;7.358;2022-10-04T02:23:24;11.80;1.00
5286;DHT22;2665;53.112;7.358;2022-10-04T02:25:50;11.80;1.00
5286;DHT22;2665;53.112;7.358;2022-10-04T02:28:17;11.90;1.00
5286;DHT22;2665;53.112;7.358;2022-10-04T02:30:49;11.90;1.00
5286;DHT22;2665;53.112;7.358;2022-10-04T02:33:43;11.80;1.00
5286;DHT22;2665;53.112;7.358;2022-10-04T02:36:10;11.80;1.00
5286;DHT22;2665;53.112;7.358;2022-10-04T02:38:40;11.80;22.00
5286;DHT22;2665;53.112;7.358;2022-10-04T02:44:02;11.80;99.90
5286;DHT22;2665;53.112;7.358;2022-10-04T02:46:37;11.80;99.90
5286;DHT22;2665;53.112;7.358;2022-10-04T02:49:23;11.80;99.90
5286;DHT22;2665;53.112;7.358;2022-10-04T02:52:56;11.80;99.90
5286;DHT22;2665;53.112;7.358;2022-10-04T02:55:18;11.80;99.90
5286;DHT22;2665;53.112;7.358;2022-10-04T02:57:44;11.80;99.90
5286;DHT22;2665;53.112;7.358;2022-10-04T03:00:18;11.80;99.90
5286;DHT22;2665;53.112;7.358;2022-10-04T03:05:35;11.80;99.90
5286;DHT22;2665;53.112;7.358;2022-10-04T03:08:03;11.80;99.90
5286;DHT22;2665;53.112;7.358;2022-10-04T03:10:29;11.80;99.90
5286;DHT22;2665;53.112;7.358;2022-10-04T03:12:56;11.90;99.90
5286;DHT22;2665;53.112;7.358;2022-10-04T03:15:22;11.80;99.90
5286;DHT22;2665;53.112;7.358;2022-10-04T03:17:48;11.80;99.90
5286;DHT22;2665;53.112;7.358;2022-10-04T03:20:16;11.80;99.90
5286;DHT22;2665;53.112;7.358;2022-10-04T03:22:49;11.70;99.90
5286;DHT22;2665;53.112;7.358;2022-10-04T03:25:25;11.70;99.90
5286;DHT22;2665;53.112;7.358;2022-10-04T03:27:54;11.70;99.90
5286;DHT22;2665;53.112;7.358;2022-10-04T03:30:21;11.60;99.90
5286;DHT22;2665;53.112;7.358;2022-10-04T03:32:48;11.60;1.00
5286;DHT22;2665;53.112;7.358;2022-10-04T03:35:34;11.60;1.00
5286;DHT22;2665;53.112;7.358;2022-10-04T03:38:04;11.60;1.00
5286;DHT22;2665;53.112;7.358;2022-10-04T03:40:32;11.60;91.70
5286;DHT22;2665;53.112;7.358;2022-10-04T03:42:59;11.60;99.90
5286;DHT22;2665;53.112;7.358;2022-10-04T03:45:27;11.60;99.90
5286;DHT22;2665;53.112;7.358;2022-10-04T03:47:57;11.60;99.90
5286;DHT22;2665;53.112;7.358;2022-10-04T03:50:30;11.60;99.90
5286;DHT22;2665;53.112;7.358;2022-10-04T03:53:10;11.60;99.90
5286;DHT22;2665;53.112;7.358;2022-10-04T03:55:39;11.60;99.90
5286;DHT22;2665;53.112;7.358;2022-10-04T03:58:10;11.70;1.00
5286;DHT22;2665;53.112;7.358;2022-10-04T04:00:41;11.70;1.00
5286;DHT22;2665;53.112;7.358;2022-10-04T04:03:15;11.70;1.00
5286;DHT22;2665;53.112;7.358;2022-10-04T04:05:49;11.70;99.90
5286;DHT22;2665;53.112;7.358;2022-10-04T04:08:32;11.60;99.90
5286;DHT22;2665;53.112;7.358;2022-10-04T04:11:01;11.60;1.00
5286;DHT22;2665;53.112;7.358;2022-10-04T04:16:13;11.60;1.00
5286;DHT22;2665;53.112;7.358;2022-10-04T04:18:41;11.60;1.00
5286;DHT22;2665;53.112;7.358;2022-10-04T04:21:08;11.60;1.00
5286;DHT22;2665;53.112;7.358;2022-10-04T04:23:45;11.60;1.00
5286;DHT22;2665;53.112;7.358;2022-10-04T04:29:10;11.50;1.00
5286;DHT22;2665;53.112;7.358;2022-10-04T04:34:20;11.50;1.00
5286;DHT22;2665;53.112;7.358;2022-10-04T04:36:46;11.50;1.00
5286;DHT22;2665;53.112;7.358;2022-10-04T04:39:21;11.50;1.00
5286;DHT22;2665;53.112;7.358;2022-10-04T04:42:31;11.50;1.00
5286;DHT22;2665;53.112;7.358;2022-10-04T04:44:58;11.50;93.70
5286;DHT22;2665;53.112;7.358;2022-10-04T04:49:55;11.50;99.90
5286;DHT22;2665;53.112;7.358;2022-10-04T04:52:24;11.50;1.00
5286;DHT22;2665;53.112;7.358;2022-10-04T04:54:51;11.50;1.00
5286;DHT22;2665;53.112;7.358;2022-10-04T04:57:17;11.60;3.80
5286;DHT22;2665;53.112;7.358;2022-10-04T04:59:46;11.70;1.00
5286;DHT22;2665;53.112;7.358;2022-10-04T05:07:40;11.70;47.40
5286;DHT22;2665;53.112;7.358;2022-10-04T05:12:57;11.80;1.00
5286;DHT22;2665;53.112;7.358;2022-10-04T05:15:25;11.80;1.00
5286;DHT22;2665;53.112;7.358;2022-10-04T05:17:51;11.80;1.00
5286;DHT22;2665;53.112;7.358;2022-10-04T05:20:17;11.80;1.00
5286;DHT22;2665;53.112;7.358;2022-10-04T05:22:47;11.80;1.00
5286;DHT22;2665;53.112;7.358;2022-10-04T05:25:27;11.80;99.90
5286;DHT22;2665;53.112;7.358;2022-10-04T05:27:54;11.90;99.90
5286;DHT22;2665;53.112;7.358;2022-10-04T05:31:16;11.80;1.00
5286;DHT22;2665;53.112;7.358;2022-10-04T05:33:51;11.80;1.00
5286;DHT22;2665;53.112;7.358;2022-10-04T05:36:30;11.70;1.00
5286;DHT22;2665;53.112;7.358;2022-10-04T05:42:05;11.70;1.00
5286;DHT22;2665;53.112;7.358;2022-10-04T05:44:54;11.70;1.00
5286;DHT22;2665;53.112;7.358;2022-10-04T05:47:25;11.70;1.00
5286;DHT22;2665;53.112;7.358;2022-10-04T05:49:56;11.60;1.00
5286;DHT22;2665;53.112;7.358;2022-10-04T05:55:26;11.60;1.00
5286;DHT22;2665;53.112;7.358;2022-10-04T06:05:56;11.40;1.00
5286;DHT22;2665;53.112;7.358;2022-10-04T06:08:50;11.40;44.20
5286;DHT22;2665;53.112;7.358;2022-10-04T06:12:07;11.30;99.90
5286;DHT22;2665;53.112;7.358;2022-10-04T06:23:16;11.20;1.00
5286;DHT22;2665;53.112;7.358;2022-10-04T06:50:18;11.20;3.90
5286;DHT22;2665;53.112;7.358;2022-10-04T07:01:51;11.40;1.00
5286;DHT22;2665;53.112;7.358;2022-10-04T07:12:40;11.70;38.00
5286;DHT22;2665;53.112;7.358;2022-10-04T07:15:16;11.80;4.20
5286;DHT22;2665;53.112;7.358;2022-10-04T07:17:44;11.80;1.00
5286;DHT22;2665;53.112;7.358;2022-10-04T07:20:25;11.80;99.90
5286;DHT22;2665;53.112;7.358;2022-10-04T07:23:04;11.90;1.00
5286;DHT22;2665;53.112;7.358;2022-10-04T07:25:42;11.90;1.00
5286;DHT22;2665;53.112;7.358;2022-10-04T07:28:14;12.00;1.00
5286;DHT22;2665;53.112;7.358;2022-10-04T07:31:02;12.00;1.00
5286;DHT22;2665;53.112;7.358;2022-10-04T07:33:32;12.10;1.00
5286;DHT22;2665;53.112;7.358;2022-10-04T07:36:20;12.20;95.10
5286;DHT22;2665;53.112;7.358;2022-10-04T07:38:55;12.40;1.00
5286;DHT22;2665;53.112;7.358;2022-10-04T07:41:33;12.50;99.90
5286;DHT22;2665;53.112;7.358;2022-10-04T07:49:40;12.70;99.90
5286;DHT22;2665;53.112;7.358;2022-10-04T07:58:14;12.80;1.00
5286;DHT22;2665;53.112;7.358;2022-10-04T08:03:34;13.00;1.00
5286;DHT22;2665;53.112;7.358;2022-10-04T08:12:01;13.10;68.50
5286;DHT22;2665;53.112;7.358;2022-10-04T08:14:53;13.10;1.00
5286;DHT22;2665;53.112;7.358;2022-10-04T08:17:36;13.10;1.00
5286;DHT22;2665;53.112;7.358;2022-10-04T08:28:20;13.30;1.00
5286;DHT22;2665;53.112;7.358;2022-10-04T08:31:21;13.40;99.90
5286;DHT22;2665;53.112;7.358;2022-10-04T08:34:14;13.70;92.80
5286;DHT22;2665;53.112;7.358;2022-10-04T08:57:13;14.20;99.90
5286;DHT22;2665;53.112;7.358;2022-10-04T09:00:12;14.10;99.90
5286;DHT22;2665;53.112;7.358;2022-10-04T09:10:49;14.10;1.00
5286;DHT22;2665;53.112;7.358;2022-10-04T09:16:23;14.00;1.00
5286;DHT22;2665;53.112;7.358;2022-10-04T09:40:35;15.40;99.90
5286;DHT22;2665;53.112;7.358;2022-10-04T09:54:13;15.60;1.00
5286;DHT22;2665;53.112;7.358;2022-10-04T10:11:13;16.00;1.00
5286;DHT22;2665;53.112;7.358;2022-10-04T10:17:09;16.10;1.00
5286;DHT22;2665;53.112;7.358;2022-10-04T10:51:17;16.70;1.00
5286;DHT22;2665;53.112;7.358;2022-10-04T10:57:09;16.90;1.00
5286;DHT22;2665;53.112;7.358;2022-10-04T11:07:53;19.40;1.00
5286;DHT22;2665;53.112;7.358;2022-10-04T11:24:39;18.40;84.30
5286;DHT22;2665;53.112;7.358;2022-10-04T11:30:02;18.00;99.90
5286;DHT22;2665;53.112;7.358;2022-10-04T11:41:44;17.80;99.90
5286;DHT22;2665;53.112;7.358;2022-10-04T11:55:57;17.80;99.90
5286;DHT22;2665;53.112;7.358;2022-10-04T12:10:41;18.20;46.00
5286;DHT22;2665;53.112;7.358;2022-10-04T12:16:03;18.20;41.60
5286;DHT22;2665;53.112;7.358;2022-10-04T12:21:31;18.40;25.50
5286;DHT22;2665;53.112;7.358;2022-10-04T12:30:13;18.40;22.50
5286;DHT22;2665;53.112;7.358;2022-10-04T12:33:09;18.40;21.60
5286;DHT22;2665;53.112;7.358;2022-10-04T12:35:52;18.30;25.90
5286;DHT22;2665;53.112;7.358;2022-10-04T12:41:31;18.40;10.10
5286;DHT22;2665;53.112;7.358;2022-10-04T12:44:27;18.40;1.00
5286;DHT22;2665;53.112;7.358;2022-10-04T12:52:21;18.60;1.00
5286;DHT22;2665;53.112;7.358;2022-10-04T13:00:17;18.80;1.00
5286;DHT22;2665;53.112;7.358;2022-10-04T13:05:41;18.70;1.00
5286;DHT22;2665;53.112;7.358;2022-10-04T13:22:29;18.90;1.00
5286;DHT22;2665;53.112;7.358;2022-10-04T13:25:13;19.00;1.00
5286;DHT22;2665;53.112;7.358;2022-10-04T13:30:23;19.10;1.00
5286;DHT22;2665;53.112;7.358;2022-10-04T13:35:45;19.30;1.00
5286;DHT22;2665;53.112;7.358;2022-10-04T13:52:21;19.80;1.00
5286;DHT22;2665;53.112;7.358;2022-10-04T14:04:04;21.30;1.00
5286;DHT22;2665;53.112;7.358;2022-10-04T14:12:02;21.70;1.00
5286;DHT22;2665;53.112;7.358;2022-10-04T14:32:14;21.40;1.00
5286;DHT22;2665;53.112;7.358;2022-10-04T14:35:02;21.60;1.00
5286;DHT22;2665;53.112;7.358;2022-10-04T14:38:06;21.80;1.00
5286;DHT22;2665;53.112;7.358;2022-10-04T14:40:44;22.40;1.00
5286;DHT22;2665;53.112;7.358;2022-10-04T14:48:51;22.70;1.00
5286;DHT22;2665;53.112;7.358;2022-10-04T14:52:04;22.60;1.00
5286;DHT22;2665;53.112;7.358;2022-10-04T14:54:36;22.50;1.00
5286;DHT22;2665;53.112;7.358;2022-10-04T14:57:23;22.50;1.00
5286;DHT22;2665;53.112;7.358;2022-10-04T15:00:07;22.20;1.00
5286;DHT22;2665;53.112;7.358;2022-10-04T15:02:57;21.90;1.00
5286;DHT22;2665;53.112;7.358;2022-10-04T15:05:41;21.90;1.00
5286;DHT22;2665;53.112;7.358;2022-10-04T15:10:53;20.80;1.00
5286;DHT22;2665;53.112;7.358;2022-10-04T15:16:09;20.40;1.00
5286;DHT22;2665;53.112;7.358;2022-10-04T15:23:59;20.20;1.00
5286;DHT22;2665;53.112;7.358;2022-10-04T15:26:46;20.70;1.00
5286;DHT22;2665;53.112;7.358;2022-10-04T15:37:57;19.60;1.00
5286;DHT22;2665;53.112;7.358;2022-10-04T15:43:23;18.60;1.00
5286;DHT22;2665;53.112;7.358;2022-10-04T15:46:02;18.30;1.00
5286;DHT22;2665;53.112;7.358;2022-10-04T15:54:10;17.50;1.00
5286;DHT22;2665;53.112;7.358;2022-10-04T15:59:11;17.30;1.00
5286;DHT22;2665;53.112;7.358;2022-10-04T16:09:43;17.10;1.00
5286;DHT22;2665;53.112;7.358;2022-10-04T16:14:53;17.10;1.00
5286;DHT22;2665;53.112;7.358;2022-10-04T16:25:58;17.60;1.00
5286;DHT22;2665;53.112;7.358;2022-10-04T16:29:01;17.40;1.00
5286;DHT22;2665;53.112;7.358;2022-10-04T16:31:45;17.10;1.00
5286;DHT22;2665;53.112;7.358;2022-10-04T16:34:35;16.90;1.00
5286;DHT22;2665;53.112;7.358;2022-10-04T16:42:23;16.40;1.00
5286;DHT22;2665;53.112;7.358;2022-10-04T16:44:55;16.30;1.00
5286;DHT22;2665;53.112;7.358;2022-10-04T16:49:53;16.10;1.00
5286;DHT22;2665;53.112;7.358;2022-10-04T16:55:29;15.90;1.00
5286;DHT22;2665;53.112;7.358;2022-10-04T17:09:29;15.50;1.00
5286;DHT22;2665;53.112;7.358;2022-10-04T17:12:23;15.40;1.00
5286;DHT22;2665;53.112;7.358;2022-10-04T17:23:29;15.20;1.00
5286;DHT22;2665;53.112;7.358;2022-10-04T17:36:50;15.00;1.00
5286;DHT22;2665;53.112;7.358;2022-10-04T17:45:13;14.80;10.60
5286;DHT22;2665;53.112;7.358;2022-10-04T17:48:13;14.80;16.00
5286;DHT22;2665;53.112;7.358;2022-10-04T17:54:23;14.70;38.70
5286;DHT22;2665;53.112;7.358;2022-10-04T17:59:44;14.70;60.40
5286;DHT22;2665;53.112;7.358;2022-10-04T18:02:23;14.70;70.10
5286;DHT22;2665;53.112;7.358;2022-10-04T18:04:57;14.60;85.00
5286;DHT22;2665;53.112;7.358;2022-10-04T18:10:16;14.60;96.40
5286;DHT22;2665;53.112;7.358;2022-10-04T18:12:57;14.60;99.90
5286;DHT22;2665;53.112;7.358;2022-10-04T18:15:47;14.50;99.90
5286;DHT22;2665;53.112;7.358;2022-10-04T18:18:17;14.50;99.90
5286;DHT22;2665;53.112;7.358;2022-10-04T18:23:30;14.50;99.90
5286;DHT22;2665;53.112;7.358;2022-10-04T18:25:59;14.50;99.90
5286;DHT22;2665;53.112;7.358;2022-10-04T18:28:25;14.50;99.90
5286;DHT22;2665;53.112;7.358;2022-10-04T18:30:57;14.50;99.90
5286;DHT22;2665;53.112;7.358;2022-10-04T18:33:45;14.50;99.90
5286;DHT22;2665;53.112;7.358;2022-10-04T18:36:23;14.50;99.90
5286;DHT22;2665;53.112;7.358;2022-10-04T18:39:17;14.50;99.90
5286;DHT22;2665;53.112;7.358;2022-10-04T18:41:53;14.60;99.90
5286;DHT22;2665;53.112;7.358;2022-10-04T18:44:22;14.60;99.90
5286;DHT22;2665;53.112;7.358;2022-10-04T18:46:54;14.60;99.90
5286;DHT22;2665;53.112;7.358;2022-10-04T18:49:23;14.70;99.90
5286;DHT22;2665;53.112;7.358;2022-10-04T19:00:27;14.80;99.90
5286;DHT22;2665;53.112;7.358;2022-10-04T19:03:17;14.90;99.90
5286;DHT22;2665;53.112;7.358;2022-10-04T19:06:27;14.90;99.90
5286;DHT22;2665;53.112;7.358;2022-10-04T19:09:15;14.90;99.90
5286;DHT22;2665;53.112;7.358;2022-10-04T19:23:04;15.00;99.90
5286;DHT22;2665;53.112;7.358;2022-10-04T19:25:38;15.00;99.90
5286;DHT22;2665;53.112;7.358;2022-10-04T19:28:19;15.00;99.90
5286;DHT22;2665;53.112;7.358;2022-10-04T19:33:36;15.00;99.90
5286;DHT22;2665;53.112;7.358;2022-10-04T19:38:53;15.00;99.90
5286;DHT22;2665;53.112;7.358;2022-10-04T19:46:50;15.00;99.90
5286;DHT22;2665;53.112;7.358;2022-10-04T19:55:19;15.00;99.90
5286;DHT22;2665;53.112;7.358;2022-10-04T19:57:50;15.00;99.90
5286;DHT22;2665;53.112;7.358;2022-10-04T20:00:18;15.00;99.90
5286;DHT22;2665;53.112;7.358;2022-10-04T20:02:46;15.00;99.90
5286;DHT22;2665;53.112;7.358;2022-10-04T20:05:17;15.00;99.90
5286;DHT22;2665;53.112;7.358;2022-10-04T20:07:50;15.00;99.90
5286;DHT22;2665;53.112;7.358;2022-10-04T20:15:44;15.00;99.90
5286;DHT22;2665;53.112;7.358;2022-10-04T20:26:09;15.00;99.90
5286;DHT22;2665;53.112;7.358;2022-10-04T20:28:38;14.90;99.90
5286;DHT22;2665;53.112;7.358;2022-10-04T20:33:52;15.00;99.90
5286;DHT22;2665;53.112;7.358;2022-10-04T20:38:58;15.00;99.90
5286;DHT22;2665;53.112;7.358;2022-10-04T20:44:00;15.00;99.90
5286;DHT22;2665;53.112;7.358;2022-10-04T20:46:52;15.00;99.90
5286;DHT22;2665;53.112;7.358;2022-10-04T20:49:18;15.00;99.90
5286;DHT22;2665;53.112;7.358;2022-10-04T20:51:49;15.10;99.90
5286;DHT22;2665;53.112;7.358;2022-10-04T20:54:19;15.10;99.90
5286;DHT22;2665;53.112;7.358;2022-10-04T20:56:47;15.10;99.90
5286;DHT22;2665;53.112;7.358;2022-10-04T20:59:15;15.10;99.90
5286;DHT22;2665;53.112;7.358;2022-10-04T21:01:41;15.10;99.90
5286;DHT22;2665;53.112;7.358;2022-10-04T21:07:03;15.20;99.90
5286;DHT22;2665;53.112;7.358;2022-10-04T21:09:33;15.20;99.90
5286;DHT22;2665;53.112;7.358;2022-10-04T21:12:00;15.20;99.90
5286;DHT22;2665;53.112;7.358;2022-10-04T21:17:00;15.20;99.90
5286;DHT22;2665;53.112;7.358;2022-10-04T21:22:07;15.20;99.90
5286;DHT22;2665;53.112;7.358;2022-10-04T21:24:40;15.20;99.90
5286;DHT22;2665;53.112;7.358;2022-10-04T21:27:11;15.20;99.90
5286;DHT22;2665;53.112;7.358;2022-10-04T21:29:37;15.10;99.90
5286;DHT22;2665;53.112;7.358;2022-10-04T21:32:04;15.10;99.90
5286;DHT22;2665;53.112;7.358;2022-10-04T21:34:30;15.10;99.90
5286;DHT22;2665;53.112;7.358;2022-10-04T21:36:55;15.10;99.90
5286;DHT22;2665;53.112;7.358;2022-10-04T21:39:23;15.10;99.90
5286;DHT22;2665;53.112;7.358;2022-10-04T21:41:49;15.10;99.90
5286;DHT22;2665;53.112;7.358;2022-10-04T21:44:14;15.10;99.90
5286;DHT22;2665;53.112;7.358;2022-10-04T21:46:40;15.10;99.90
5286;DHT22;2665;53.112;7.358;2022-10-04T21:49:06;15.10;99.90
5286;DHT22;2665;53.112;7.358;2022-10-04T21:51:31;15.10;99.90
5286;DHT22;2665;53.112;7.358;2022-10-04T21:54:03;15.10;99.90
5286;DHT22;2665;53.112;7.358;2022-10-04T21:56:29;15.10;99.90
5286;DHT22;2665;53.112;7.358;2022-10-04T21:58:55;15.10;99.90
5286;DHT22;2665;53.112;7.358;2022-10-04T22:01:21;15.10;99.90
5286;DHT22;2665;53.112;7.358;2022-10-04T22:03:46;15.10;99.90
5286;DHT22;2665;53.112;7.358;2022-10-04T22:06:12;15.10;99.90
5286;DHT22;2665;53.112;7.358;2022-10-04T22:08:38;15.10;99.90
5286;DHT22;2665;53.112;7.358;2022-10-04T22:11:03;15.10;99.90
5286;DHT22;2665;53.112;7.358;2022-10-04T22:13:29;15.00;99.90
5286;DHT22;2665;53.112;7.358;2022-10-04T22:15:54;15.10;99.90
5286;DHT22;2665;53.112;7.358;2022-10-04T22:18:20;15.10;99.90
5286;DHT22;2665;53.112;7.358;2022-10-04T22:20:45;15.10;99.90
5286;DHT22;2665;53.112;7.358;2022-10-04T22:23:17;15.10;99.90
5286;DHT22;2665;53.112;7.358;2022-10-04T22:25:43;15.10;99.90
5286;DHT22;2665;53.112;7.358;2022-10-04T22:28:28;15.10;99.90
5286;DHT22;2665;53.112;7.358;2022-10-04T22:30:54;15.10;99.90
5286;DHT22;2665;53.112;7.358;2022-10-04T22:33:40;15.10;99.90
5286;DHT22;2665;53.112;7.358;2022-10-04T22:38:59;15.10;99.90
5286;DHT22;2665;53.112;7.358;2022-10-04T22:41:34;15.20;99.90
5286;DHT22;2665;53.112;7.358;2022-10-04T22:44:16;15.20;99.90
5286;DHT22;2665;53.112;7.358;2022-10-04T22:46:44;15.20;99.90
5286;DHT22;2665;53.112;7.358;2022-10-04T22:49:13;15.20;99.90
5286;DHT22;2665;53.112;7.358;2022-10-04T22:51:41;15.20;99.90
5286;DHT22;2665;53.112;7.358;2022-10-04T22:54:12;15.20;99.90
5286;DHT22;2665;53.112;7.358;2022-10-04T22:56:38;15.20;1.00
5286;DHT22;2665;53.112;7.358;2022-10-04T22:59:04;15.20;1.00
5286;DHT22;2665;53.112;7.358;2022-10-04T23:01:33;15.20;1.00
5286;DHT22;2665;53.112;7.358;2022-10-04T23:03:59;15.20;1.00
5286;DHT22;2665;53.112;7.358;2022-10-04T23:06:24;15.20;1.00
5286;DHT22;2665;53.112;7.358;2022-10-04T23:08:50;15.20;1.00
5286;DHT22;2665;53.112;7.358;2022-10-04T23:11:15;15.20;1.00
5286;DHT22;2665;53.112;7.358;2022-10-04T23:13:41;15.30;1.00
5286;DHT22;2665;53.112;7.358;2022-10-04T23:16:18;15.30;1.00
5286;DHT22;2665;53.112;7.358;2022-10-04T23:18:45;15.20;1.00
5286;DHT22;2665;53.112;7.358;2022-10-04T23:21:20;15.30;1.00
5286;DHT22;2665;53.112;7.358;2022-10-04T23:23:47;15.30;1.00
5286;DHT22;2665;53.112;7.358;2022-10-04T23:26:23;15.30;1.00
5286;DHT22;2665;53.112;7.358;2022-10-04T23:28:50;15.30;1.00
5286;DHT22;2665;53.112;7.358;2022-10-04T23:31:22;15.30;1.00
5286;DHT22;2665;53.112;7.358;2022-10-04T23:33:49;15.30;1.00
5286;DHT22;2665;53.112;7.358;2022-10-04T23:36:15;15.40;1.00
5286;DHT22;2665;53.112;7.358;2022-10-04T23:38:48;15.40;1.00
5286;DHT22;2665;53.112;7.358;2022-10-04T23:41:14;15.40;1.00
5286;DHT22;2665;53.112;7.358;2022-10-04T23:43:40;15.30;1.00
5286;DHT22;2665;53.112;7.358;2022-10-04T23:46:14;15.30;1.00
5286;DHT22;2665;53.112;7.358;2022-10-04T23:48:41;15.30;1.00
5286;DHT22;2665;53.112;7.358;2022-10-04T23:51:11;15.30;1.00
5286;DHT22;2665;53.112;7.358;2022-10-04T23:53:38;15.30;1.00
5286;DHT22;2665;53.112;7.358;2022-10-04T23:56:29;15.30;1.00
5286;DHT22;2665;53.112;7.358;2022-10-04T23:58:56;15.40;1.00
